sensor_id;sensor_type;location;lat;lon;timestamp;P1;durP1;ratioP1;P2;durP2;ratioP2
41875;SDS011;27555;50.808;4.402;2023-04-15T00:01:58;4.13;;;1.20;;
41875;SDS011;27555;50.808;4.402;2023-04-15T00:04:24;3.15;;;1.35;;
41875;SDS011;27555;50.808;4.402;2023-04-15T00:06:50;6.38;;;1.70;;
41875;SDS011;27555;50.808;4.402;2023-04-15T00:09:19;2.08;;;1.50;;
41875;SDS011;27555;50.808;4.402;2023-04-15T00:11:45;4.50;;;1.67;;
41875;SDS011;27555;50.808;4.402;2023-04-15T00:14:11;3.72;;;1.73;;
41875;SDS011;27555;50.808;4.402;2023-04-15T00:16:37;3.75;;;1.88;;
41875;SDS011;27555;50.808;4.402;2023-04-15T00:19:03;4.05;;;1.20;;
41875;SDS011;27555;50.808;4.402;2023-04-15T00:21:29;2.80;;;1.48;;
41875;SDS011;27555;50.808;4.402;2023-04-15T00:23:54;2.67;;;1.70;;
41875;SDS011;27555;50.808;4.402;2023-04-15T00:26:20;5.32;;;1.65;;
41875;SDS011;27555;50.808;4.402;2023-04-15T00:28:46;2.35;;;1.40;;
41875;SDS011;27555;50.808;4.402;2023-04-15T00:31:11;3.22;;;1.67;;
41875;SDS011;27555;50.808;4.402;2023-04-15T00:33:38;2.40;;;1.30;;
41875;SDS011;27555;50.808;4.402;2023-04-15T00:36:05;4.80;;;1.63;;
41875;SDS011;27555;50.808;4.402;2023-04-15T00:38:31;3.20;;;2.00;;
41875;SDS011;27555;50.808;4.402;2023-04-15T00:40:57;8.05;;;2.20;;
41875;SDS011;27555;50.808;4.402;2023-04-15T00:43:23;4.22;;;1.80;;
41875;SDS011;27555;50.808;4.402;2023-04-15T00:45:50;5.00;;;1.92;;
41875;SDS011;27555;50.808;4.402;2023-04-15T00:48:17;4.50;;;1.98;;
41875;SDS011;27555;50.808;4.402;2023-04-15T00:50:44;5.00;;;2.03;;
41875;SDS011;27555;50.808;4.402;2023-04-15T00:53:10;5.75;;;2.33;;
41875;SDS011;27555;50.808;4.402;2023-04-15T00:55:36;4.63;;;2.35;;
41875;SDS011;27555;50.808;4.402;2023-04-15T00:58:02;4.22;;;2.55;;
41875;SDS011;27555;50.808;4.402;2023-04-15T01:00:27;5.65;;;2.05;;
41875;SDS011;27555;50.808;4.402;2023-04-15T01:02:54;7.93;;;2.20;;
41875;SDS011;27555;50.808;4.402;2023-04-15T01:05:19;3.65;;;1.85;;
41875;SDS011;27555;50.808;4.402;2023-04-15T01:07:46;3.88;;;1.92;;
41875;SDS011;27555;50.808;4.402;2023-04-15T01:10:12;4.28;;;2.25;;
41875;SDS011;27555;50.808;4.402;2023-04-15T01:12:38;6.57;;;1.92;;
41875;SDS011;27555;50.808;4.402;2023-04-15T01:15:04;7.20;;;2.22;;
41875;SDS011;27555;50.808;4.402;2023-04-15T01:17:30;5.15;;;1.75;;
41875;SDS011;27555;50.808;4.402;2023-04-15T01:19:56;6.30;;;2.85;;
41875;SDS011;27555;50.808;4.402;2023-04-15T01:22:23;3.67;;;1.98;;
41875;SDS011;27555;50.808;4.402;2023-04-15T01:24:53;3.67;;;2.20;;
41875;SDS011;27555;50.808;4.402;2023-04-15T01:27:25;4.50;;;2.47;;
41875;SDS011;27555;50.808;4.402;2023-04-15T01:29:51;3.72;;;2.03;;
41875;SDS011;27555;50.808;4.402;2023-04-15T01:32:17;7.47;;;2.50;;
41875;SDS011;27555;50.808;4.402;2023-04-15T01:34:43;5.78;;;2.58;;
41875;SDS011;27555;50.808;4.402;2023-04-15T01:37:09;4.85;;;2.25;;
41875;SDS011;27555;50.808;4.402;2023-04-15T01:39:35;3.97;;;2.22;;
41875;SDS011;27555;50.808;4.402;2023-04-15T01:42:01;11.85;;;2.38;;
41875;SDS011;27555;50.808;4.402;2023-04-15T01:44:27;7.93;;;2.80;;
41875;SDS011;27555;50.808;4.402;2023-04-15T01:46:52;6.65;;;2.53;;
41875;SDS011;27555;50.808;4.402;2023-04-15T01:49:18;3.42;;;2.20;;
41875;SDS011;27555;50.808;4.402;2023-04-15T01:51:43;4.38;;;1.98;;
41875;SDS011;27555;50.808;4.402;2023-04-15T01:54:09;4.45;;;2.33;;
41875;SDS011;27555;50.808;4.402;2023-04-15T01:56:35;3.28;;;2.20;;
41875;SDS011;27555;50.808;4.402;2023-04-15T01:59:00;5.97;;;3.03;;
41875;SDS011;27555;50.808;4.402;2023-04-15T02:01:27;8.85;;;2.38;;
41875;SDS011;27555;50.808;4.402;2023-04-15T02:03:53;5.75;;;2.42;;
41875;SDS011;27555;50.808;4.402;2023-04-15T02:06:18;4.35;;;2.88;;
41875;SDS011;27555;50.808;4.402;2023-04-15T02:08:44;4.80;;;2.13;;
41875;SDS011;27555;50.808;4.402;2023-04-15T02:11:10;4.70;;;2.45;;
41875;SDS011;27555;50.808;4.402;2023-04-15T02:13:36;4.68;;;2.67;;
41875;SDS011;27555;50.808;4.402;2023-04-15T02:16:01;5.40;;;2.30;;
41875;SDS011;27555;50.808;4.402;2023-04-15T02:18:27;6.25;;;2.10;;
41875;SDS011;27555;50.808;4.402;2023-04-15T02:20:53;4.60;;;2.10;;
41875;SDS011;27555;50.808;4.402;2023-04-15T02:23:19;8.35;;;2.25;;
41875;SDS011;27555;50.808;4.402;2023-04-15T02:25:45;3.65;;;2.35;;
41875;SDS011;27555;50.808;4.402;2023-04-15T02:28:11;4.22;;;1.92;;
41875;SDS011;27555;50.808;4.402;2023-04-15T02:30:36;3.00;;;2.05;;
41875;SDS011;27555;50.808;4.402;2023-04-15T02:33:02;5.05;;;2.03;;
41875;SDS011;27555;50.808;4.402;2023-04-15T02:35:28;6.03;;;2.28;;
41875;SDS011;27555;50.808;4.402;2023-04-15T02:37:53;3.15;;;2.00;;
41875;SDS011;27555;50.808;4.402;2023-04-15T02:40:19;7.75;;;2.60;;
41875;SDS011;27555;50.808;4.402;2023-04-15T02:42:45;4.18;;;2.28;;
41875;SDS011;27555;50.808;4.402;2023-04-15T02:45:11;5.55;;;2.70;;
41875;SDS011;27555;50.808;4.402;2023-04-15T02:47:37;3.33;;;1.90;;
41875;SDS011;27555;50.808;4.402;2023-04-15T02:50:08;5.28;;;2.58;;
41875;SDS011;27555;50.808;4.402;2023-04-15T02:52:36;3.15;;;2.33;;
41875;SDS011;27555;50.808;4.402;2023-04-15T02:55:05;5.40;;;2.70;;
41875;SDS011;27555;50.808;4.402;2023-04-15T02:57:32;4.32;;;2.80;;
41875;SDS011;27555;50.808;4.402;2023-04-15T02:59:58;5.60;;;2.58;;
41875;SDS011;27555;50.808;4.402;2023-04-15T03:02:24;4.22;;;2.60;;
41875;SDS011;27555;50.808;4.402;2023-04-15T03:04:50;4.28;;;2.20;;
41875;SDS011;27555;50.808;4.402;2023-04-15T03:07:16;9.00;;;2.78;;
41875;SDS011;27555;50.808;4.402;2023-04-15T03:09:42;5.28;;;2.40;;
41875;SDS011;27555;50.808;4.402;2023-04-15T03:12:08;4.68;;;2.38;;
41875;SDS011;27555;50.808;4.402;2023-04-15T03:14:34;6.70;;;2.70;;
41875;SDS011;27555;50.808;4.402;2023-04-15T03:16:59;4.93;;;2.30;;
41875;SDS011;27555;50.808;4.402;2023-04-15T03:19:25;6.18;;;2.85;;
41875;SDS011;27555;50.808;4.402;2023-04-15T03:21:51;6.38;;;2.72;;
41875;SDS011;27555;50.808;4.402;2023-04-15T03:24:16;5.45;;;3.35;;
41875;SDS011;27555;50.808;4.402;2023-04-15T03:26:42;6.78;;;2.78;;
41875;SDS011;27555;50.808;4.402;2023-04-15T03:29:08;5.95;;;3.38;;
41875;SDS011;27555;50.808;4.402;2023-04-15T03:31:33;11.45;;;4.47;;
41875;SDS011;27555;50.808;4.402;2023-04-15T03:33:59;8.88;;;4.32;;
41875;SDS011;27555;50.808;4.402;2023-04-15T03:36:27;9.27;;;5.18;;
41875;SDS011;27555;50.808;4.402;2023-04-15T03:38:54;15.63;;;5.43;;
41875;SDS011;27555;50.808;4.402;2023-04-15T03:41:20;16.77;;;6.88;;
41875;SDS011;27555;50.808;4.402;2023-04-15T03:43:46;18.45;;;8.13;;
41875;SDS011;27555;50.808;4.402;2023-04-15T03:46:13;23.80;;;9.25;;
41875;SDS011;27555;50.808;4.402;2023-04-15T03:48:38;25.20;;;9.18;;
41875;SDS011;27555;50.808;4.402;2023-04-15T03:51:04;20.85;;;8.60;;
41875;SDS011;27555;50.808;4.402;2023-04-15T03:53:29;15.90;;;6.90;;
41875;SDS011;27555;50.808;4.402;2023-04-15T03:55:55;19.67;;;7.65;;
41875;SDS011;27555;50.808;4.402;2023-04-15T03:58:21;16.67;;;6.45;;
41875;SDS011;27555;50.808;4.402;2023-04-15T04:00:46;12.05;;;4.95;;
41875;SDS011;27555;50.808;4.402;2023-04-15T04:03:12;14.20;;;6.45;;
41875;SDS011;27555;50.808;4.402;2023-04-15T04:05:37;14.68;;;5.97;;
41875;SDS011;27555;50.808;4.402;2023-04-15T04:08:05;21.60;;;5.32;;
41875;SDS011;27555;50.808;4.402;2023-04-15T04:10:31;13.57;;;5.38;;
41875;SDS011;27555;50.808;4.402;2023-04-15T04:12:57;12.95;;;5.75;;
41875;SDS011;27555;50.808;4.402;2023-04-15T04:15:22;10.98;;;5.55;;
41875;SDS011;27555;50.808;4.402;2023-04-15T04:17:48;11.02;;;5.18;;
41875;SDS011;27555;50.808;4.402;2023-04-15T04:20:13;14.88;;;5.75;;
41875;SDS011;27555;50.808;4.402;2023-04-15T04:22:39;10.07;;;5.30;;
41875;SDS011;27555;50.808;4.402;2023-04-15T04:25:05;9.27;;;5.15;;
41875;SDS011;27555;50.808;4.402;2023-04-15T04:27:32;11.15;;;4.72;;
41875;SDS011;27555;50.808;4.402;2023-04-15T04:29:58;14.00;;;5.25;;
41875;SDS011;27555;50.808;4.402;2023-04-15T04:32:24;11.52;;;4.97;;
41875;SDS011;27555;50.808;4.402;2023-04-15T04:34:50;11.50;;;4.97;;
41875;SDS011;27555;50.808;4.402;2023-04-15T04:37:15;14.23;;;5.30;;
41875;SDS011;27555;50.808;4.402;2023-04-15T04:39:41;12.68;;;5.18;;
41875;SDS011;27555;50.808;4.402;2023-04-15T04:42:06;9.30;;;4.88;;
41875;SDS011;27555;50.808;4.402;2023-04-15T04:44:32;16.55;;;5.60;;
41875;SDS011;27555;50.808;4.402;2023-04-15T04:46:57;9.90;;;4.30;;
41875;SDS011;27555;50.808;4.402;2023-04-15T04:49:23;11.45;;;4.85;;
41875;SDS011;27555;50.808;4.402;2023-04-15T04:51:48;10.75;;;4.50;;
41875;SDS011;27555;50.808;4.402;2023-04-15T04:54:14;9.82;;;4.05;;
41875;SDS011;27555;50.808;4.402;2023-04-15T04:56:40;12.20;;;4.32;;
41875;SDS011;27555;50.808;4.402;2023-04-15T04:59:05;8.95;;;4.07;;
41875;SDS011;27555;50.808;4.402;2023-04-15T05:01:31;9.85;;;4.35;;
41875;SDS011;27555;50.808;4.402;2023-04-15T05:03:57;10.25;;;4.68;;
41875;SDS011;27555;50.808;4.402;2023-04-15T05:06:23;13.60;;;5.47;;
41875;SDS011;27555;50.808;4.402;2023-04-15T05:08:49;7.85;;;3.25;;
41875;SDS011;27555;50.808;4.402;2023-04-15T05:11:14;14.18;;;5.63;;
41875;SDS011;27555;50.808;4.402;2023-04-15T05:13:40;8.77;;;4.68;;
41875;SDS011;27555;50.808;4.402;2023-04-15T05:16:05;16.05;;;4.75;;
41875;SDS011;27555;50.808;4.402;2023-04-15T05:18:31;13.85;;;4.40;;
41875;SDS011;27555;50.808;4.402;2023-04-15T05:20:57;10.38;;;3.60;;
41875;SDS011;27555;50.808;4.402;2023-04-15T05:23:23;9.18;;;4.20;;
41875;SDS011;27555;50.808;4.402;2023-04-15T05:25:49;9.07;;;4.07;;
41875;SDS011;27555;50.808;4.402;2023-04-15T05:28:14;18.73;;;5.20;;
41875;SDS011;27555;50.808;4.402;2023-04-15T05:30:40;14.45;;;5.47;;
41875;SDS011;27555;50.808;4.402;2023-04-15T05:33:06;12.25;;;4.50;;
41875;SDS011;27555;50.808;4.402;2023-04-15T05:35:31;11.68;;;4.55;;
41875;SDS011;27555;50.808;4.402;2023-04-15T05:37:57;9.88;;;4.10;;
41875;SDS011;27555;50.808;4.402;2023-04-15T05:40:22;9.80;;;4.18;;
41875;SDS011;27555;50.808;4.402;2023-04-15T05:42:48;9.52;;;5.03;;
41875;SDS011;27555;50.808;4.402;2023-04-15T05:45:13;9.63;;;4.40;;
41875;SDS011;27555;50.808;4.402;2023-04-15T05:47:39;12.65;;;4.95;;
41875;SDS011;27555;50.808;4.402;2023-04-15T05:50:05;9.50;;;4.63;;
41875;SDS011;27555;50.808;4.402;2023-04-15T05:52:31;8.90;;;4.05;;
41875;SDS011;27555;50.808;4.402;2023-04-15T05:54:57;12.25;;;3.72;;
41875;SDS011;27555;50.808;4.402;2023-04-15T05:57:22;8.05;;;3.65;;
41875;SDS011;27555;50.808;4.402;2023-04-15T05:59:48;10.77;;;3.90;;
41875;SDS011;27555;50.808;4.402;2023-04-15T06:02:16;15.18;;;7.50;;
41875;SDS011;27555;50.808;4.402;2023-04-15T06:04:42;6.75;;;4.07;;
41875;SDS011;27555;50.808;4.402;2023-04-15T06:07:07;14.80;;;4.50;;
41875;SDS011;27555;50.808;4.402;2023-04-15T06:09:33;11.60;;;4.45;;
41875;SDS011;27555;50.808;4.402;2023-04-15T06:11:59;11.85;;;4.63;;
41875;SDS011;27555;50.808;4.402;2023-04-15T06:14:25;7.28;;;4.22;;
41875;SDS011;27555;50.808;4.402;2023-04-15T06:16:51;15.50;;;4.25;;
41875;SDS011;27555;50.808;4.402;2023-04-15T06:19:17;13.75;;;4.80;;
41875;SDS011;27555;50.808;4.402;2023-04-15T06:21:43;17.15;;;6.22;;
41875;SDS011;27555;50.808;4.402;2023-04-15T06:24:09;14.73;;;4.43;;
41875;SDS011;27555;50.808;4.402;2023-04-15T06:26:35;9.85;;;4.63;;
41875;SDS011;27555;50.808;4.402;2023-04-15T06:29:02;8.48;;;5.03;;
41875;SDS011;27555;50.808;4.402;2023-04-15T06:31:28;15.48;;;5.10;;
41875;SDS011;27555;50.808;4.402;2023-04-15T06:33:54;11.23;;;4.60;;
41875;SDS011;27555;50.808;4.402;2023-04-15T06:36:20;15.07;;;4.28;;
41875;SDS011;27555;50.808;4.402;2023-04-15T06:38:46;9.77;;;4.97;;
41875;SDS011;27555;50.808;4.402;2023-04-15T06:41:11;8.52;;;4.30;;
41875;SDS011;27555;50.808;4.402;2023-04-15T06:43:37;11.13;;;5.13;;
41875;SDS011;27555;50.808;4.402;2023-04-15T06:46:03;10.75;;;4.47;;
41875;SDS011;27555;50.808;4.402;2023-04-15T06:48:28;8.27;;;4.28;;
41875;SDS011;27555;50.808;4.402;2023-04-15T06:50:54;11.80;;;4.68;;
41875;SDS011;27555;50.808;4.402;2023-04-15T06:53:20;8.95;;;4.95;;
41875;SDS011;27555;50.808;4.402;2023-04-15T06:55:46;11.93;;;4.88;;
41875;SDS011;27555;50.808;4.402;2023-04-15T06:58:11;9.07;;;4.50;;
41875;SDS011;27555;50.808;4.402;2023-04-15T07:00:38;7.80;;;3.75;;
41875;SDS011;27555;50.808;4.402;2023-04-15T07:03:04;11.13;;;3.95;;
41875;SDS011;27555;50.808;4.402;2023-04-15T07:05:30;12.23;;;4.10;;
41875;SDS011;27555;50.808;4.402;2023-04-15T07:07:56;10.77;;;3.97;;
41875;SDS011;27555;50.808;4.402;2023-04-15T07:10:22;13.68;;;3.83;;
41875;SDS011;27555;50.808;4.402;2023-04-15T07:12:48;10.00;;;4.40;;
41875;SDS011;27555;50.808;4.402;2023-04-15T07:15:14;9.80;;;4.13;;
41875;SDS011;27555;50.808;4.402;2023-04-15T07:17:40;12.18;;;4.90;;
41875;SDS011;27555;50.808;4.402;2023-04-15T07:20:07;11.38;;;4.38;;
41875;SDS011;27555;50.808;4.402;2023-04-15T07:22:33;7.70;;;4.00;;
41875;SDS011;27555;50.808;4.402;2023-04-15T07:24:59;10.43;;;4.13;;
41875;SDS011;27555;50.808;4.402;2023-04-15T07:27:25;7.32;;;4.20;;
41875;SDS011;27555;50.808;4.402;2023-04-15T07:29:51;7.80;;;3.78;;
41875;SDS011;27555;50.808;4.402;2023-04-15T07:32:17;7.95;;;3.83;;
41875;SDS011;27555;50.808;4.402;2023-04-15T07:34:43;8.48;;;3.65;;
41875;SDS011;27555;50.808;4.402;2023-04-15T07:37:08;10.25;;;3.70;;
41875;SDS011;27555;50.808;4.402;2023-04-15T07:39:34;8.60;;;3.38;;
41875;SDS011;27555;50.808;4.402;2023-04-15T07:42:01;6.63;;;3.88;;
41875;SDS011;27555;50.808;4.402;2023-04-15T07:44:26;11.77;;;3.83;;
41875;SDS011;27555;50.808;4.402;2023-04-15T07:46:52;9.02;;;4.15;;
41875;SDS011;27555;50.808;4.402;2023-04-15T07:49:18;10.88;;;4.57;;
41875;SDS011;27555;50.808;4.402;2023-04-15T07:51:45;7.43;;;3.72;;
41875;SDS011;27555;50.808;4.402;2023-04-15T07:54:11;9.00;;;4.32;;
41875;SDS011;27555;50.808;4.402;2023-04-15T07:56:36;10.82;;;4.28;;
41875;SDS011;27555;50.808;4.402;2023-04-15T07:59:02;11.60;;;5.75;;
41875;SDS011;27555;50.808;4.402;2023-04-15T08:01:29;10.15;;;4.60;;
41875;SDS011;27555;50.808;4.402;2023-04-15T08:03:55;11.35;;;4.68;;
41875;SDS011;27555;50.808;4.402;2023-04-15T08:06:21;9.68;;;4.80;;
41875;SDS011;27555;50.808;4.402;2023-04-15T08:08:47;10.25;;;4.72;;
41875;SDS011;27555;50.808;4.402;2023-04-15T08:11:12;12.38;;;5.20;;
41875;SDS011;27555;50.808;4.402;2023-04-15T08:13:38;12.32;;;6.20;;
41875;SDS011;27555;50.808;4.402;2023-04-15T08:16:37;15.38;;;5.10;;
41875;SDS011;27555;50.808;4.402;2023-04-15T08:18:55;10.45;;;4.50;;
41875;SDS011;27555;50.808;4.402;2023-04-15T08:21:21;15.95;;;5.20;;
41875;SDS011;27555;50.808;4.402;2023-04-15T08:23:48;9.35;;;4.88;;
41875;SDS011;27555;50.808;4.402;2023-04-15T08:26:14;11.15;;;4.78;;
41875;SDS011;27555;50.808;4.402;2023-04-15T08:28:41;20.50;;;12.00;;
41875;SDS011;27555;50.808;4.402;2023-04-15T08:31:08;11.50;;;4.78;;
41875;SDS011;27555;50.808;4.402;2023-04-15T08:33:34;13.05;;;6.05;;
41875;SDS011;27555;50.808;4.402;2023-04-15T08:36:00;9.85;;;4.72;;
41875;SDS011;27555;50.808;4.402;2023-04-15T08:38:25;12.13;;;5.45;;
41875;SDS011;27555;50.808;4.402;2023-04-15T08:40:51;7.95;;;4.72;;
41875;SDS011;27555;50.808;4.402;2023-04-15T08:43:23;10.05;;;5.00;;
41875;SDS011;27555;50.808;4.402;2023-04-15T08:45:53;9.88;;;5.28;;
41875;SDS011;27555;50.808;4.402;2023-04-15T08:48:19;15.77;;;6.82;;
41875;SDS011;27555;50.808;4.402;2023-04-15T08:50:46;14.10;;;6.13;;
41875;SDS011;27555;50.808;4.402;2023-04-15T08:53:12;17.00;;;6.03;;
41875;SDS011;27555;50.808;4.402;2023-04-15T08:55:44;13.30;;;5.18;;
41875;SDS011;27555;50.808;4.402;2023-04-15T08:58:11;9.82;;;5.25;;
41875;SDS011;27555;50.808;4.402;2023-04-15T09:00:41;11.32;;;5.97;;
41875;SDS011;27555;50.808;4.402;2023-04-15T09:03:07;11.65;;;5.80;;
41875;SDS011;27555;50.808;4.402;2023-04-15T09:05:36;16.23;;;6.20;;
41875;SDS011;27555;50.808;4.402;2023-04-15T09:08:02;11.70;;;6.20;;
41875;SDS011;27555;50.808;4.402;2023-04-15T09:10:29;13.32;;;5.10;;
41875;SDS011;27555;50.808;4.402;2023-04-15T09:12:55;9.15;;;5.25;;
41875;SDS011;27555;50.808;4.402;2023-04-15T09:15:23;9.05;;;5.20;;
41875;SDS011;27555;50.808;4.402;2023-04-15T09:20:16;10.68;;;6.00;;
41875;SDS011;27555;50.808;4.402;2023-04-15T09:22:46;10.63;;;5.72;;
41875;SDS011;27555;50.808;4.402;2023-04-15T09:27:47;9.00;;;4.30;;
41875;SDS011;27555;50.808;4.402;2023-04-15T09:30:14;10.00;;;4.60;;
41875;SDS011;27555;50.808;4.402;2023-04-15T09:32:48;11.77;;;4.65;;
41875;SDS011;27555;50.808;4.402;2023-04-15T09:35:13;7.03;;;3.83;;
41875;SDS011;27555;50.808;4.402;2023-04-15T09:37:39;10.02;;;4.63;;
41875;SDS011;27555;50.808;4.402;2023-04-15T09:40:06;9.10;;;3.35;;
41875;SDS011;27555;50.808;4.402;2023-04-15T09:42:34;7.67;;;4.20;;
41875;SDS011;27555;50.808;4.402;2023-04-15T09:45:07;5.38;;;3.38;;
41875;SDS011;27555;50.808;4.402;2023-04-15T09:47:36;8.13;;;3.60;;
41875;SDS011;27555;50.808;4.402;2023-04-15T09:50:02;9.93;;;3.90;;
41875;SDS011;27555;50.808;4.402;2023-04-15T09:52:28;12.85;;;4.18;;
41875;SDS011;27555;50.808;4.402;2023-04-15T09:54:56;5.75;;;3.50;;
41875;SDS011;27555;50.808;4.402;2023-04-15T09:57:22;8.73;;;3.90;;
41875;SDS011;27555;50.808;4.402;2023-04-15T09:59:49;9.07;;;4.60;;
41875;SDS011;27555;50.808;4.402;2023-04-15T10:02:15;9.05;;;3.90;;
41875;SDS011;27555;50.808;4.402;2023-04-15T10:04:44;9.60;;;4.55;;
41875;SDS011;27555;50.808;4.402;2023-04-15T10:07:14;9.25;;;4.13;;
41875;SDS011;27555;50.808;4.402;2023-04-15T10:09:42;7.20;;;3.50;;
41875;SDS011;27555;50.808;4.402;2023-04-15T10:12:09;8.30;;;3.83;;
41875;SDS011;27555;50.808;4.402;2023-04-15T10:14:36;7.68;;;3.58;;
41875;SDS011;27555;50.808;4.402;2023-04-15T10:17:04;5.28;;;3.20;;
41875;SDS011;27555;50.808;4.402;2023-04-15T10:19:33;8.65;;;3.22;;
41875;SDS011;27555;50.808;4.402;2023-04-15T10:22:01;7.25;;;3.22;;
41875;SDS011;27555;50.808;4.402;2023-04-15T10:24:28;10.13;;;4.10;;
41875;SDS011;27555;50.808;4.402;2023-04-15T10:26:55;7.00;;;3.00;;
41875;SDS011;27555;50.808;4.402;2023-04-15T10:29:23;4.90;;;2.65;;
41875;SDS011;27555;50.808;4.402;2023-04-15T10:31:55;3.70;;;2.30;;
41875;SDS011;27555;50.808;4.402;2023-04-15T10:34:22;6.45;;;2.45;;
41875;SDS011;27555;50.808;4.402;2023-04-15T10:36:49;7.35;;;2.50;;
41875;SDS011;27555;50.808;4.402;2023-04-15T10:42:10;7.22;;;2.35;;
41875;SDS011;27555;50.808;4.402;2023-04-15T10:44:44;7.18;;;2.70;;
41875;SDS011;27555;50.808;4.402;2023-04-15T10:47:16;4.60;;;2.40;;
41875;SDS011;27555;50.808;4.402;2023-04-15T10:50:01;5.32;;;2.58;;
41875;SDS011;27555;50.808;4.402;2023-04-15T10:52:27;6.43;;;2.78;;
41875;SDS011;27555;50.808;4.402;2023-04-15T10:55:03;6.00;;;2.58;;
41875;SDS011;27555;50.808;4.402;2023-04-15T10:57:40;5.68;;;3.03;;
41875;SDS011;27555;50.808;4.402;2023-04-15T11:05:16;9.85;;;2.42;;
41875;SDS011;27555;50.808;4.402;2023-04-15T11:12:51;19.73;;;2.05;;
41875;SDS011;27555;50.808;4.402;2023-04-15T11:20:33;4.15;;;1.90;;
41875;SDS011;27555;50.808;4.402;2023-04-15T11:23:00;1.92;;;1.00;;
41875;SDS011;27555;50.808;4.402;2023-04-15T11:25:26;2.28;;;1.50;;
41875;SDS011;27555;50.808;4.402;2023-04-15T11:27:54;3.90;;;1.90;;
41875;SDS011;27555;50.808;4.402;2023-04-15T11:32:47;6.75;;;2.60;;
41875;SDS011;27555;50.808;4.402;2023-04-15T11:35:15;2.35;;;1.73;;
41875;SDS011;27555;50.808;4.402;2023-04-15T11:37:42;5.85;;;2.78;;
41875;SDS011;27555;50.808;4.402;2023-04-15T11:40:08;6.40;;;2.42;;
41875;SDS011;27555;50.808;4.402;2023-04-15T11:42:34;2.97;;;2.10;;
41875;SDS011;27555;50.808;4.402;2023-04-15T11:45:10;4.35;;;3.00;;
41875;SDS011;27555;50.808;4.402;2023-04-15T11:47:38;5.75;;;2.30;;
41875;SDS011;27555;50.808;4.402;2023-04-15T11:50:17;4.72;;;2.30;;
41875;SDS011;27555;50.808;4.402;2023-04-15T11:52:57;5.20;;;1.50;;
41875;SDS011;27555;50.808;4.402;2023-04-15T11:55:25;1.70;;;1.45;;
41875;SDS011;27555;50.808;4.402;2023-04-15T11:58:07;2.75;;;1.63;;
41875;SDS011;27555;50.808;4.402;2023-04-15T12:00:49;1.83;;;1.40;;
41875;SDS011;27555;50.808;4.402;2023-04-15T12:08:47;2.83;;;1.77;;
41875;SDS011;27555;50.808;4.402;2023-04-15T12:11:29;4.15;;;1.67;;
41875;SDS011;27555;50.808;4.402;2023-04-15T12:16:31;3.47;;;2.53;;
41875;SDS011;27555;50.808;4.402;2023-04-15T12:18:59;5.90;;;3.25;;
41875;SDS011;27555;50.808;4.402;2023-04-15T12:21:26;6.43;;;3.33;;
41875;SDS011;27555;50.808;4.402;2023-04-15T12:26:25;12.00;;;4.13;;
41875;SDS011;27555;50.808;4.402;2023-04-15T12:29:00;6.80;;;2.80;;
41875;SDS011;27555;50.808;4.402;2023-04-15T12:31:27;7.30;;;2.78;;
41875;SDS011;27555;50.808;4.402;2023-04-15T12:33:58;4.75;;;2.35;;
41875;SDS011;27555;50.808;4.402;2023-04-15T12:36:25;3.50;;;2.85;;
41875;SDS011;27555;50.808;4.402;2023-04-15T12:38:51;4.47;;;2.05;;
41875;SDS011;27555;50.808;4.402;2023-04-15T12:41:16;7.57;;;2.75;;
41875;SDS011;27555;50.808;4.402;2023-04-15T12:43:45;4.47;;;1.90;;
41875;SDS011;27555;50.808;4.402;2023-04-15T12:46:11;3.92;;;1.73;;
41875;SDS011;27555;50.808;4.402;2023-04-15T12:48:37;2.75;;;1.65;;
41875;SDS011;27555;50.808;4.402;2023-04-15T12:51:04;2.20;;;1.60;;
41875;SDS011;27555;50.808;4.402;2023-04-15T12:53:29;7.47;;;2.05;;
41875;SDS011;27555;50.808;4.402;2023-04-15T12:55:55;5.40;;;2.53;;
41875;SDS011;27555;50.808;4.402;2023-04-15T12:58:21;3.83;;;1.85;;
41875;SDS011;27555;50.808;4.402;2023-04-15T13:00:46;2.63;;;1.58;;
41875;SDS011;27555;50.808;4.402;2023-04-15T13:03:12;10.23;;;2.05;;
41875;SDS011;27555;50.808;4.402;2023-04-15T13:05:38;2.63;;;1.27;;
41875;SDS011;27555;50.808;4.402;2023-04-15T13:08:04;4.63;;;2.13;;
41875;SDS011;27555;50.808;4.402;2023-04-15T13:10:30;3.67;;;2.00;;
41875;SDS011;27555;50.808;4.402;2023-04-15T13:12:56;3.58;;;2.40;;
41875;SDS011;27555;50.808;4.402;2023-04-15T13:15:22;2.58;;;1.70;;
41875;SDS011;27555;50.808;4.402;2023-04-15T13:17:48;7.05;;;2.00;;
41875;SDS011;27555;50.808;4.402;2023-04-15T13:20:14;2.22;;;1.52;;
41875;SDS011;27555;50.808;4.402;2023-04-15T13:22:40;2.53;;;1.40;;
41875;SDS011;27555;50.808;4.402;2023-04-15T13:25:06;5.40;;;2.80;;
41875;SDS011;27555;50.808;4.402;2023-04-15T13:27:33;5.40;;;2.83;;
41875;SDS011;27555;50.808;4.402;2023-04-15T13:29:58;3.97;;;2.00;;
41875;SDS011;27555;50.808;4.402;2023-04-15T13:32:24;5.32;;;2.05;;
41875;SDS011;27555;50.808;4.402;2023-04-15T13:34:50;6.13;;;2.42;;
41875;SDS011;27555;50.808;4.402;2023-04-15T13:37:16;5.63;;;1.80;;
41875;SDS011;27555;50.808;4.402;2023-04-15T13:39:41;4.18;;;2.33;;
41875;SDS011;27555;50.808;4.402;2023-04-15T13:42:07;7.47;;;2.75;;
41875;SDS011;27555;50.808;4.402;2023-04-15T13:44:33;5.60;;;3.05;;
41875;SDS011;27555;50.808;4.402;2023-04-15T13:47:00;6.05;;;2.20;;
41875;SDS011;27555;50.808;4.402;2023-04-15T13:49:25;2.63;;;1.63;;
41875;SDS011;27555;50.808;4.402;2023-04-15T13:51:51;3.45;;;2.05;;
41875;SDS011;27555;50.808;4.402;2023-04-15T13:54:17;3.53;;;1.80;;
41875;SDS011;27555;50.808;4.402;2023-04-15T13:56:42;2.63;;;1.60;;
41875;SDS011;27555;50.808;4.402;2023-04-15T13:59:08;3.80;;;1.50;;
41875;SDS011;27555;50.808;4.402;2023-04-15T14:01:34;2.92;;;1.98;;
41875;SDS011;27555;50.808;4.402;2023-04-15T14:03:59;2.03;;;1.38;;
41875;SDS011;27555;50.808;4.402;2023-04-15T14:06:25;4.32;;;1.73;;
41875;SDS011;27555;50.808;4.402;2023-04-15T14:08:52;9.82;;;2.38;;
41875;SDS011;27555;50.808;4.402;2023-04-15T14:11:17;5.88;;;2.15;;
41875;SDS011;27555;50.808;4.402;2023-04-15T14:13:43;3.72;;;1.92;;
41875;SDS011;27555;50.808;4.402;2023-04-15T14:16:09;4.10;;;1.55;;
41875;SDS011;27555;50.808;4.402;2023-04-15T14:18:34;4.78;;;1.90;;
41875;SDS011;27555;50.808;4.402;2023-04-15T14:21:01;7.07;;;2.35;;
41875;SDS011;27555;50.808;4.402;2023-04-15T14:23:27;4.65;;;1.55;;
41875;SDS011;27555;50.808;4.402;2023-04-15T14:25:53;5.60;;;1.75;;
41875;SDS011;27555;50.808;4.402;2023-04-15T14:28:18;4.15;;;1.75;;
41875;SDS011;27555;50.808;4.402;2023-04-15T14:30:44;7.13;;;2.10;;
41875;SDS011;27555;50.808;4.402;2023-04-15T14:33:10;5.97;;;1.40;;
41875;SDS011;27555;50.808;4.402;2023-04-15T14:35:35;4.18;;;1.63;;
41875;SDS011;27555;50.808;4.402;2023-04-15T14:38:01;5.65;;;1.08;;
41875;SDS011;27555;50.808;4.402;2023-04-15T14:40:27;3.83;;;1.05;;
41875;SDS011;27555;50.808;4.402;2023-04-15T14:42:53;2.28;;;0.82;;
41875;SDS011;27555;50.808;4.402;2023-04-15T14:45:18;7.43;;;1.40;;
41875;SDS011;27555;50.808;4.402;2023-04-15T14:47:44;7.50;;;1.80;;
41875;SDS011;27555;50.808;4.402;2023-04-15T14:50:09;2.97;;;1.00;;
41875;SDS011;27555;50.808;4.402;2023-04-15T14:52:35;3.60;;;1.10;;
41875;SDS011;27555;50.808;4.402;2023-04-15T14:55:07;4.70;;;2.42;;
41875;SDS011;27555;50.808;4.402;2023-04-15T14:57:36;2.35;;;1.00;;
41875;SDS011;27555;50.808;4.402;2023-04-15T15:00:03;3.03;;;1.17;;
41875;SDS011;27555;50.808;4.402;2023-04-15T15:02:30;2.83;;;1.35;;
41875;SDS011;27555;50.808;4.402;2023-04-15T15:04:57;2.47;;;0.93;;
41875;SDS011;27555;50.808;4.402;2023-04-15T15:07:23;6.40;;;1.63;;
41875;SDS011;27555;50.808;4.402;2023-04-15T15:09:48;5.28;;;1.88;;
41875;SDS011;27555;50.808;4.402;2023-04-15T15:12:14;2.85;;;1.60;;
41875;SDS011;27555;50.808;4.402;2023-04-15T15:14:40;2.40;;;1.30;;
41875;SDS011;27555;50.808;4.402;2023-04-15T15:17:06;3.67;;;1.65;;